Time;durP1;ratioP1;P1;durP2;ratioP2;P2;SDS_P1;SDS_P2;PMS_P1;PMS_P2;Temp;Humidity;BMP_temperature;BMP_pressure;BME280_temperature;BME280_humidity;BME280_pressure;Samples;Min_cycle;Max_cycle;Signal;HPM_P1;HPM_P2
2022/03/17 00:00:29;;;;;;;34.78;20.98;;;;;;;8.61;72.42;99322.81;4951074;28;20039;-68
2022/03/17 00:02:55;;;;;;;30.85;20.08;;;;;;;8.65;72.20;99326.84;4952824;28;20031;-68
2022/03/17 00:05:20;;;;;;;33.90;20.80;;;;;;;8.52;72.34;99297.75;4968007;28;20035;-68
2022/03/17 00:07:46;;;;;;;32.20;20.05;;;;;;;8.63;72.90;99334.25;4950219;28;20032;-68
2022/03/17 00:10:14;;;;;;;34.70;20.48;;;;;;;8.45;73.13;99319.19;4947584;28;20542;-68
2022/03/17 00:12:42;;;;;;;31.83;20.92;;;;;;;8.61;73.27;99339.00;4952316;29;20051;-68
2022/03/17 00:15:08;;;;;;;33.70;21.67;;;;;;;8.55;72.08;99317.09;4952953;28;20030;-69
2022/03/17 00:17:34;;;;;;;31.75;20.63;;;;;;;8.72;72.43;99333.19;4950356;28;21633;-69
2022/03/17 00:19:59;;;;;;;29.30;20.05;;;;;;;8.74;71.70;99325.75;4952315;28;20019;-69
2022/03/17 00:22:24;;;;;;;31.50;20.60;;;;;;;8.74;71.80;99329.28;4946779;28;20083;-69
2022/03/17 00:24:50;;;;;;;29.77;19.40;;;;;;;8.74;71.61;99329.28;4953864;28;20106;-69
2022/03/17 00:27:15;;;;;;;38.30;20.75;;;;;;;8.73;71.64;99332.19;4953933;28;20019;-69
2022/03/17 00:29:41;;;;;;;32.65;19.38;;;;;;;8.70;71.98;99338.78;4953287;28;20098;-69
2022/03/17 00:32:07;;;;;;;32.85;20.48;;;;;;;8.53;71.79;99324.53;4950732;28;20035;-69
2022/03/17 00:37:23;;;;;;;34.25;20.00;;;;;;;8.42;73.05;99324.94;4953040;28;20038;-69
2022/03/17 00:39:48;;;;;;;34.30;20.92;;;;;;;8.27;74.16;99321.28;4952864;28;20089;-68
2022/03/17 00:42:13;;;;;;;32.38;20.65;;;;;;;8.30;73.11;99300.19;4951557;28;20483;-69
2022/03/17 00:44:38;;;;;;;34.88;21.17;;;;;;;8.39;73.13;99314.50;4967908;28;20089;-69
2022/03/17 00:47:04;;;;;;;31.98;20.65;;;;;;;8.41;72.85;99312.47;4954392;28;20041;-69
2022/03/17 00:49:30;;;;;;;32.63;20.55;;;;;;;8.37;72.88;99321.91;4949520;28;20492;-69
2022/03/17 00:51:55;;;;;;;32.55;21.52;;;;;;;8.35;73.43;99334.72;4951264;28;20624;-69
2022/03/17 00:54:21;;;;;;;32.92;21.08;;;;;;;8.47;72.07;99333.34;4946908;29;20090;-69
2022/03/17 00:56:46;;;;;;;37.38;20.50;;;;;;;8.53;71.67;99334.47;4953519;28;20390;-69
2022/03/17 00:59:12;;;;;;;30.55;19.98;;;;;;;8.36;71.81;99312.13;4947074;28;20031;-69
2022/03/17 01:01:38;;;;;;;33.97;21.52;;;;;;;8.29;72.35;99309.28;4952559;28;20447;-69
2022/03/17 01:04:03;;;;;;;32.75;20.92;;;;;;;8.27;71.72;99311.31;4952624;29;20081;-69
2022/03/17 01:06:28;;;;;;;33.80;19.90;;;;;;;8.24;72.23;99310.84;4952114;28;20038;-69
2022/03/17 01:08:53;;;;;;;32.83;21.05;;;;;;;8.11;73.34;99311.41;4951844;28;20035;-69
2022/03/17 01:11:19;;;;;;;32.45;20.55;;;;;;;8.28;71.61;99322.97;4951429;28;20398;-69
2022/03/17 01:13:44;;;;;;;31.65;19.73;;;;;;;8.19;72.35;99318.63;4944919;29;20028;-68
2022/03/17 01:16:10;;;;;;;33.08;20.67;;;;;;;8.16;71.72;99325.19;4953891;28;20435;-68
2022/03/17 01:18:35;;;;;;;31.90;19.98;;;;;;;8.07;71.95;99320.88;4952357;28;20027;-68
2022/03/17 01:21:01;;;;;;;32.97;20.30;;;;;;;7.93;73.35;99318.88;4950218;28;20154;-68
2022/03/17 01:23:26;;;;;;;33.42;19.48;;;;;;;8.17;72.55;99329.56;4952710;28;20599;-68
2022/03/17 01:25:51;;;;;;;32.42;20.73;;;;;;;8.21;72.03;99332.75;4954882;28;20061;-68
2022/03/17 01:28:16;;;;;;;33.22;19.73;;;;;;;8.27;70.51;99332.06;4951914;28;20081;-69
2022/03/17 01:30:42;;;;;;;31.83;19.73;;;;;;;8.36;69.81;99333.72;4950098;28;20086;-69
2022/03/17 01:33:07;;;;;;;33.60;20.27;;;;;;;8.45;69.77;99329.97;4963664;28;20494;-68
2022/03/17 01:35:32;;;;;;;33.95;20.17;;;;;;;8.38;70.09;99322.72;4948723;28;20039;-68
2022/03/17 01:37:58;;;;;;;31.52;20.55;;;;;;;8.40;71.01;99331.53;4944610;28;20502;-69
2022/03/17 01:40:23;;;;;;;31.65;20.08;;;;;;;8.20;70.90;99301.41;4950687;28;20027;-69
2022/03/17 01:42:48;;;;;;;32.55;19.60;;;;;;;8.06;70.61;99311.91;4954859;28;20031;-69
2022/03/17 01:45:15;;;;;;;33.03;19.25;;;;;;;8.23;70.16;99339.66;4948292;28;20019;-68
2022/03/17 01:47:40;;;;;;;32.10;20.20;;;;;;;8.20;70.08;99314.91;4952629;28;20102;-69
2022/03/17 01:50:12;;;;;;;34.55;21.08;;;;;;;8.10;70.96;99323.22;4951329;28;20111;-69
2022/03/17 01:52:39;;;;;;;33.15;19.90;;;;;;;7.92;72.05;99328.81;4943235;29;20085;-69
2022/03/17 01:55:06;;;;;;;32.53;19.38;;;;;;;7.75;73.17;99311.03;4952890;28;20058;-69
2022/03/17 01:57:31;;;;;;;32.70;20.10;;;;;;;7.89;72.69;99323.78;4954777;28;20027;-69
2022/03/17 01:59:58;;;;;;;33.65;19.90;;;;;;;8.11;70.93;99333.81;4952405;28;20034;-69
2022/03/17 02:02:24;;;;;;;33.20;19.55;;;;;;;8.07;71.66;99337.88;4959264;28;20046;-68
2022/03/17 02:04:50;;;;;;;29.63;18.58;;;;;;;8.01;71.20;99338.56;4953887;28;20054;-68
2022/03/17 02:07:16;;;;;;;34.42;20.38;;;;;;;7.99;71.64;99329.81;4957884;28;20023;-69
2022/03/17 02:09:42;;;;;;;32.88;19.60;;;;;;;7.73;72.25;99311.22;4954693;28;20035;-68
2022/03/17 02:15:10;;;;;;;36.35;20.15;;;;;;;8.08;71.99;99336.00;4954132;29;20078;-68
2022/03/17 02:17:39;;;;;;;33.13;19.58;;;;;;;8.00;71.49;99331.50;4961513;28;20426;-68
2022/03/17 02:20:08;;;;;;;30.38;18.55;;;;;;;8.05;71.52;99342.59;4951632;28;20042;-69
2022/03/17 02:22:37;;;;;;;34.17;19.23;;;;;;;8.05;71.41;99339.91;4952821;28;20391;-69
2022/03/17 02:27:47;;;;;;;33.33;18.88;;;;;;;7.74;71.76;99310.19;4950443;29;20050;-69
2022/03/17 02:30:20;;;;;;;32.38;18.77;;;;;;;7.78;72.01;99338.47;4951587;28;20031;-69
2022/03/17 02:32:46;;;;;;;32.65;19.65;;;;;;;7.88;72.08;99344.47;4952540;28;20495;-68
2022/03/17 02:35:19;;;;;;;34.22;20.85;;;;;;;7.88;71.69;99354.41;4950322;29;20062;-68
2022/03/17 02:37:46;;;;;;;35.42;19.95;;;;;;;7.90;72.06;99355.94;4952229;28;20023;-68
2022/03/17 02:40:11;;;;;;;36.28;19.40;;;;;;;7.86;72.02;99335.75;4948454;28;20059;-68
2022/03/17 02:42:38;;;;;;;34.50;20.83;;;;;;;7.80;71.75;99324.81;4951492;28;20066;-69
2022/03/17 02:45:06;;;;;;;33.80;20.35;;;;;;;7.98;71.87;99355.06;4943647;28;20271;-69
2022/03/17 02:47:31;;;;;;;31.55;19.20;;;;;;;7.83;71.72;99335.25;4955401;28;20042;-69
2022/03/17 02:49:57;;;;;;;33.17;19.20;;;;;;;7.80;71.68;99331.03;4952425;28;20031;-69
2022/03/17 02:52:24;;;;;;;31.33;18.55;;;;;;;7.93;72.19;99346.66;4955116;28;20023;-68
2022/03/17 02:54:50;;;;;;;33.90;19.75;;;;;;;7.78;72.73;99332.22;4955550;28;20038;-70
2022/03/17 02:57:16;;;;;;;30.35;18.98;;;;;;;7.90;72.15;99341.63;4959441;28;20028;-68
2022/03/17 02:59:41;;;;;;;32.22;19.50;;;;;;;7.84;72.97;99332.38;4963825;28;20035;-68
2022/03/17 03:02:06;;;;;;;33.80;20.02;;;;;;;7.83;72.36;99332.53;4960143;28;20086;-68
2022/03/17 03:04:34;;;;;;;33.38;18.75;;;;;;;7.80;71.33;99314.88;4961636;29;20045;-71
2022/03/17 03:07:06;;;;;;;32.78;19.20;;;;;;;7.92;72.00;99347.69;4961145;28;20043;-70
2022/03/17 03:09:32;;;;;;;31.75;19.38;;;;;;;7.99;70.70;99343.28;4966572;28;20098;-71
2022/03/17 03:11:57;;;;;;;31.45;18.80;;;;;;;8.04;70.16;99346.31;4966041;28;20023;-71
2022/03/17 03:14:23;;;;;;;32.35;19.25;;;;;;;7.94;70.41;99334.88;4965034;28;20057;-71
2022/03/17 03:16:50;;;;;;;32.40;19.20;;;;;;;8.10;70.22;99340.22;4957700;28;20073;-71
2022/03/17 03:19:15;;;;;;;32.10;18.77;;;;;;;8.12;69.77;99348.09;4962269;28;20039;-69
2022/03/17 03:21:43;;;;;;;32.15;18.92;;;;;;;8.18;69.45;99354.69;4953063;28;20027;-68
2022/03/17 03:24:09;;;;;;;32.53;18.20;;;;;;;8.11;69.90;99355.34;4954722;28;20027;-69
2022/03/17 03:26:35;;;;;;;31.45;18.35;;;;;;;8.12;70.80;99359.75;4951099;29;20049;-69
2022/03/17 03:29:00;;;;;;;26.73;17.35;;;;;;;8.05;70.10;99358.75;4955822;28;20127;-69
2022/03/17 03:31:25;;;;;;;34.55;19.02;;;;;;;8.07;70.99;99364.81;4955582;28;20061;-69
2022/03/17 03:33:50;;;;;;;32.88;19.63;;;;;;;8.05;70.41;99364.16;4955059;29;20031;-69
2022/03/17 03:39:00;;;;;;;30.90;18.90;;;;;;;7.88;71.01;99362.50;4950807;28;20065;-69
2022/03/17 03:41:25;;;;;;;33.45;19.35;;;;;;;7.89;69.94;99348.03;4952822;29;20114;-69
2022/03/17 03:43:50;;;;;;;32.45;19.23;;;;;;;8.03;69.76;99371.56;4968948;28;20030;-69
2022/03/17 03:46:16;;;;;;;31.83;18.98;;;;;;;7.83;70.34;99343.31;4953178;28;20154;-69
2022/03/17 03:48:42;;;;;;;32.13;19.80;;;;;;;8.00;70.39;99376.47;4947438;28;20040;-69
2022/03/17 03:51:07;;;;;;;30.20;18.38;;;;;;;7.95;70.25;99370.75;4948176;28;20065;-69
2022/03/17 03:56:16;;;;;;;34.10;18.63;;;;;;;8.00;70.75;99380.00;4947568;29;20046;-69
2022/03/17 03:58:41;;;;;;;34.63;18.63;;;;;;;7.95;70.66;99387.75;4953453;28;20027;-69
2022/03/17 04:01:07;;;;;;;32.45;19.52;;;;;;;7.93;71.30;99384.38;4951357;29;20066;-69
2022/03/17 04:03:32;;;;;;;32.53;19.73;;;;;;;7.83;70.61;99373.81;4954024;29;20474;-69
2022/03/17 04:05:58;;;;;;;31.40;19.02;;;;;;;7.64;71.17;99352.63;4954100;28;20487;-69
2022/03/17 04:08:23;;;;;;;30.45;18.30;;;;;;;7.78;71.51;99381.56;4967024;28;20023;-69
2022/03/17 04:10:49;;;;;;;33.33;19.30;;;;;;;7.76;71.49;99382.75;4966907;28;20055;-69
2022/03/17 04:13:14;;;;;;;32.95;19.27;;;;;;;7.80;71.75;99382.22;4953483;28;20443;-69
2022/03/17 04:15:39;;;;;;;32.15;18.42;;;;;;;7.74;71.69;99387.47;4954248;29;20035;-69
2022/03/17 04:18:05;;;;;;;32.05;19.40;;;;;;;7.58;70.84;99353.31;4950201;28;20118;-69
2022/03/17 04:20:30;;;;;;;30.42;18.75;;;;;;;7.73;70.62;99380.38;4949545;29;20046;-69
2022/03/17 04:22:55;;;;;;;30.45;18.50;;;;;;;7.85;70.93;99392.50;4953747;28;20566;-69
2022/03/17 04:25:21;;;;;;;32.08;18.80;;;;;;;7.74;71.21;99404.47;4953631;28;20064;-69
2022/03/17 04:27:46;;;;;;;35.78;19.55;;;;;;;7.64;71.67;99385.78;4953901;28;20023;-69
2022/03/17 04:30:11;;;;;;;34.60;20.52;;;;;;;7.59;72.02;99400.78;4953051;28;20042;-69
2022/03/17 04:32:37;;;;;;;33.38;19.52;;;;;;;7.62;72.03;99412.06;4951136;28;20023;-69
2022/03/17 04:35:03;;;;;;;33.22;19.63;;;;;;;7.48;71.93;99407.34;4948586;28;20054;-69
2022/03/17 04:37:29;;;;;;;31.10;18.65;;;;;;;7.43;72.12;99394.38;4953714;28;20031;-67
2022/03/17 04:39:54;;;;;;;30.27;18.83;;;;;;;7.59;71.99;99417.75;4952741;28;20074;-67
2022/03/17 04:42:19;;;;;;;31.80;18.58;;;;;;;7.59;71.74;99415.06;4965204;28;20038;-72
2022/03/17 04:44:45;;;;;;;34.60;20.02;;;;;;;7.49;71.57;99400.94;4950462;28;20035;-77
2022/03/17 04:47:10;;;;;;;29.25;17.65;;;;;;;7.57;71.55;99413.56;4951563;28;20027;-77
2022/03/17 04:49:36;;;;;;;28.92;18.20;;;;;;;7.43;71.42;99398.94;4954559;28;20027;-76
2022/03/17 04:52:01;;;;;;;30.95;19.33;;;;;;;7.52;71.46;99427.53;4955724;29;20554;-75
2022/03/17 04:54:27;;;;;;;29.67;17.55;;;;;;;7.58;71.83;99421.47;4957903;28;20031;-78
2022/03/17 04:56:52;;;;;;;30.50;18.10;;;;;;;7.77;70.81;99432.91;4968423;28;20019;-73
2022/03/17 04:59:20;;;;;;;29.50;17.65;;;;;;;7.68;70.96;99413.22;4948180;28;20030;-70
2022/03/17 05:01:46;;;;;;;31.05;18.13;;;;;;;7.72;71.52;99416.41;4953901;28;20054;-73
2022/03/17 05:04:11;;;;;;;29.63;18.17;;;;;;;7.50;71.75;99404.50;4950541;28;20070;-72
2022/03/17 05:06:36;;;;;;;28.40;17.30;;;;;;;7.35;72.01;99397.06;4948118;28;20394;-74
2022/03/17 05:09:02;;;;;;;30.00;18.42;;;;;;;7.40;72.50;99418.13;4948093;28;20106;-72
2022/03/17 05:11:27;;;;;;;35.88;18.90;;;;;;;7.63;70.91;99426.34;4951633;28;20027;-70
2022/03/17 05:13:52;;;;;;;29.30;17.88;;;;;;;7.53;70.83;99415.75;4944412;28;20027;-71
2022/03/17 05:16:18;;;;;;;28.80;17.05;;;;;;;7.46;71.06;99422.81;4951285;28;20490;-70
2022/03/17 05:18:44;;;;;;;29.80;17.65;;;;;;;7.33;73.08;99420.63;4954263;28;20023;-69
2022/03/17 05:21:09;;;;;;;32.85;19.25;;;;;;;7.48;73.76;99439.66;4951961;28;20037;-71
2022/03/17 05:23:35;;;;;;;32.85;18.60;;;;;;;7.21;75.48;99427.34;4948469;29;20059;-72
2022/03/17 05:26:00;;;;;;;31.33;19.52;;;;;;;7.30;75.68;99455.09;4948570;28;20644;-76
2022/03/17 05:28:26;;;;;;;31.88;20.08;;;;;;;7.30;75.61;99452.41;4954772;28;20039;-74
2022/03/17 05:30:52;;;;;;;35.00;19.20;;;;;;;7.17;75.97;99445.66;4948524;28;20042;-73
2022/03/17 05:33:17;;;;;;;32.30;18.85;;;;;;;7.32;73.12;99456.63;4952282;28;20086;-72
2022/03/17 05:35:43;;;;;;;31.35;18.73;;;;;;;7.30;75.22;99460.50;4951246;28;20477;-70
2022/03/17 05:38:09;;;;;;;32.85;19.48;;;;;;;7.25;75.71;99459.13;4951050;28;20030;-71
2022/03/17 05:40:36;;;;;;;33.38;18.98;;;;;;;7.20;76.91;99466.88;4946856;28;20029;-69
2022/03/17 05:43:06;;;;;;;30.80;18.52;;;;;;;7.31;76.94;99476.50;4948013;28;20093;-69
2022/03/17 05:45:31;;;;;;;29.55;17.95;;;;;;;7.29;75.40;99469.59;4966461;28;20115;-75
2022/03/17 05:47:59;;;;;;;32.60;18.88;;;;;;;7.24;75.99;99470.06;4949134;28;20487;-74
2022/03/17 05:50:30;;;;;;;36.47;19.25;;;;;;;7.38;74.15;99447.03;4947348;28;20031;-74
2022/03/17 05:52:56;;;;;;;26.60;17.17;;;;;;;7.57;72.25;99457.50;4951984;28;20106;-73
2022/03/17 05:55:23;;;;;;;27.38;17.13;;;;;;;7.55;71.97;99437.97;4951706;28;20029;-76
2022/03/17 05:57:51;;;;;;;30.85;18.00;;;;;;;7.66;71.01;99472.63;4957324;28;20037;-77
2022/03/17 06:00:19;;;;;;;32.47;17.83;;;;;;;7.73;70.41;99472.81;4951331;28;20023;-68
2022/03/17 06:02:44;;;;;;;25.48;16.75;;;;;;;7.62;71.49;99459.66;4947683;29;20038;-69
2022/03/17 06:05:12;;;;;;;26.73;17.00;;;;;;;7.46;71.88;99457.81;4948873;29;20026;-72
2022/03/17 06:07:44;;;;;;;30.77;18.25;;;;;;;7.59;73.50;99503.09;4949714;28;20395;-73
2022/03/17 06:10:12;;;;;;;31.73;18.98;;;;;;;7.31;74.95;99478.31;4949190;28;20031;-76
2022/03/17 06:12:38;;;;;;;31.83;19.08;;;;;;;7.49;75.50;99505.94;4950058;28;20027;-73
2022/03/17 06:15:05;;;;;;;32.58;18.40;;;;;;;7.29;76.47;99491.13;4952452;28;20028;-74
2022/03/17 06:17:37;;;;;;;31.52;18.85;;;;;;;7.38;74.84;99504.41;4949796;28;20086;-71
2022/03/17 06:20:03;;;;;;;32.75;18.73;;;;;;;7.30;73.90;99490.94;4962655;28;20079;-70
2022/03/17 06:22:28;;;;;;;32.28;18.60;;;;;;;7.58;73.16;99504.94;4951682;28;20027;-69
2022/03/17 06:24:54;;;;;;;28.13;18.05;;;;;;;7.65;72.96;99508.66;4950899;28;20124;-69
2022/03/17 06:27:19;;;;;;;31.42;18.85;;;;;;;7.71;73.42;99482.06;4950134;28;20038;-68
2022/03/17 06:29:44;;;;;;;34.35;19.02;;;;;;;7.82;73.64;99501.41;4952674;29;20046;-70
2022/03/17 06:32:10;;;;;;;31.80;18.42;;;;;;;7.89;73.14;99504.31;4951508;28;20085;-69
2022/03/17 06:34:35;;;;;;;31.33;18.77;;;;;;;7.85;72.00;99473.31;4951907;29;20525;-70
2022/03/17 06:37:00;;;;;;;28.33;17.52;;;;;;;7.89;71.06;99488.97;4953738;28;20031;-73
2022/03/17 06:39:26;;;;;;;26.52;17.15;;;;;;;7.83;72.22;99480.72;4970853;28;20110;-77
2022/03/17 06:41:51;;;;;;;31.88;18.17;;;;;;;7.95;70.89;99494.69;4955034;28;20254;-73
2022/03/17 06:44:16;;;;;;;29.90;17.38;;;;;;;8.08;71.36;99508.50;4968535;28;20027;-69
2022/03/17 06:46:41;;;;;;;26.60;17.42;;;;;;;8.08;72.24;99520.09;4949571;28;20509;-69
2022/03/17 06:49:07;;;;;;;31.50;17.50;;;;;;;8.01;72.71;99496.69;4946842;28;20030;-68
2022/03/17 06:51:32;;;;;;;30.55;18.55;;;;;;;8.13;71.78;99514.22;4947411;28;20031;-69
2022/03/17 06:53:57;;;;;;;28.48;17.42;;;;;;;8.03;71.44;99500.06;4954043;28;20082;-71
2022/03/17 06:56:23;;;;;;;26.77;17.55;;;;;;;8.24;72.22;99526.50;4954063;29;20456;-71
2022/03/17 06:58:48;;;;;;;25.33;17.23;;;;;;;8.29;71.96;99522.28;4951159;28;20081;-73
2022/03/17 07:01:13;;;;;;;28.48;16.58;;;;;;;8.10;71.95;99495.69;4952305;28;20027;-71
2022/03/17 07:03:39;;;;;;;30.65;19.23;;;;;;;8.04;72.81;99505.31;4950069;29;20399;-70
2022/03/17 07:06:04;;;;;;;32.10;19.20;;;;;;;8.21;73.46;99537.63;4951045;28;20027;-68
2022/03/17 07:08:29;;;;;;;27.25;17.17;;;;;;;8.29;73.61;99545.69;4945054;28;20027;-70
2022/03/17 07:10:54;;;;;;;33.53;18.17;;;;;;;8.18;73.73;99513.72;4953259;28;20089;-72
2022/03/17 07:13:20;;;;;;;31.52;17.48;;;;;;;8.34;73.07;99529.84;4948829;28;20062;-68
2022/03/17 07:15:45;;;;;;;33.55;19.00;;;;;;;8.38;71.64;99533.03;4954893;28;20030;-69
2022/03/17 07:18:10;;;;;;;31.33;18.58;;;;;;;8.48;70.82;99531.88;4945019;28;20023;-70
2022/03/17 07:20:36;;;;;;;32.90;19.00;;;;;;;8.63;70.90;99558.97;4954236;28;20046;-69
2022/03/17 07:23:01;;;;;;;29.77;18.10;;;;;;;8.41;71.17;99543.50;4948457;28;20040;-70
2022/03/17 07:25:27;;;;;;;24.92;16.55;;;;;;;8.65;71.07;99551.56;4954810;29;20057;-79
2022/03/17 07:27:53;;;;;;;29.85;18.67;;;;;;;8.75;71.52;99583.72;4968022;28;20098;-78
2022/03/17 07:30:22;;;;;;;29.75;18.13;;;;;;;8.71;71.95;99582.41;4953736;28;20045;-76
2022/03/17 07:32:52;;;;;;;27.35;17.17;;;;;;;8.76;72.72;99588.13;4954188;28;20031;-74
2022/03/17 07:35:19;;;;;;;27.40;18.33;;;;;;;8.76;72.07;99586.25;4950429;28;20158;-73
2022/03/17 07:37:45;;;;;;;31.17;18.85;;;;;;;8.89;69.26;99601.91;4947750;28;20027;-75
2022/03/17 07:40:11;;;;;;;29.38;18.23;;;;;;;8.87;69.03;99579.66;4952616;28;20026;-75
2022/03/17 07:42:36;;;;;;;30.63;18.83;;;;;;;8.93;66.85;99570.00;4952528;28;20031;-71
2022/03/17 07:45:02;;;;;;;31.15;19.23;;;;;;;9.34;65.82;99600.41;4955399;28;20541;-71
2022/03/17 07:47:28;;;;;;;27.80;17.35;;;;;;;9.28;65.06;99595.72;4964391;28;20030;-72
2022/03/17 07:49:53;;;;;;;28.30;17.83;;;;;;;9.15;65.78;99585.47;4950735;28;20391;-72
2022/03/17 07:52:18;;;;;;;29.58;18.15;;;;;;;9.14;66.16;99597.28;4954266;29;20807;-72
2022/03/17 07:54:46;;;;;;;30.65;18.55;;;;;;;9.11;66.21;99607.56;4952799;29;20114;-76
2022/03/17 07:57:12;;;;;;;28.25;17.88;;;;;;;9.04;66.24;99588.56;4967515;28;20034;-71
2022/03/17 07:59:38;;;;;;;28.08;18.45;;;;;;;9.08;65.71;99578.25;4950919;28;20020;-74
2022/03/17 08:02:04;;;;;;;28.98;18.08;;;;;;;9.18;65.38;99605.88;4955221;28;20027;-72
2022/03/17 08:04:29;;;;;;;32.67;17.40;;;;;;;9.11;65.60;99589.50;4952289;28;20027;-73
2022/03/17 08:06:57;;;;;;;32.00;18.10;;;;;;;8.94;65.67;99580.66;4948260;28;20038;-73
2022/03/17 08:09:23;;;;;;;30.13;17.73;;;;;;;9.15;65.68;99617.84;4951297;28;20114;-73
2022/03/17 08:11:49;;;;;;;29.05;17.90;;;;;;;8.94;66.17;99583.34;4952880;28;20115;-77
2022/03/17 08:14:17;;;;;;;28.63;18.60;;;;;;;9.32;65.75;99624.03;4951668;28;20050;-77
2022/03/17 08:16:43;;;;;;;32.35;17.30;;;;;;;9.27;65.34;99595.88;4952927;28;20050;-71
2022/03/17 08:19:12;;;;;;;30.02;17.83;;;;;;;9.34;64.97;99603.09;4952974;28;20015;-74
2022/03/17 08:21:39;;;;;;;30.02;17.33;;;;;;;9.47;64.71;99609.78;4951338;28;20138;-73
2022/03/17 08:24:05;;;;;;;31.95;18.90;;;;;;;9.41;65.18;99617.59;4957717;28;20048;-74
2022/03/17 08:26:31;;;;;;;28.48;18.75;;;;;;;9.48;65.08;99633.06;4956992;28;20034;-70
2022/03/17 08:28:56;;;;;;;31.88;19.10;;;;;;;9.39;65.73;99606.13;4951903;28;20039;-70
2022/03/17 08:31:21;;;;;;;31.45;19.02;;;;;;;9.71;64.84;99633.13;4951088;28;20038;-71
2022/03/17 08:33:47;;;;;;;29.25;18.60;;;;;;;9.70;64.90;99615.25;4962819;28;20027;-73
2022/03/17 08:36:12;;;;;;;31.42;18.30;;;;;;;9.53;64.91;99604.50;4952354;28;20031;-72
2022/03/17 08:38:37;;;;;;;33.80;19.10;;;;;;;9.66;65.13;99622.84;4946826;28;20158;-68
2022/03/17 08:41:03;;;;;;;29.50;18.35;;;;;;;9.70;65.20;99629.59;4953449;29;20043;-77
2022/03/17 08:43:28;;;;;;;31.52;19.77;;;;;;;9.69;64.70;99625.19;4946355;28;20043;-74
2022/03/17 08:51:26;;;;;;;31.90;19.83;;;;;;;9.84;64.44;99650.44;4953336;29;20066;-73
2022/03/17 08:53:51;;;;;;;32.30;19.08;;;;;;;9.92;64.46;99629.81;4951885;28;20027;-76
2022/03/17 08:56:16;;;;;;;30.50;19.70;;;;;;;9.83;63.61;99624.44;4950626;28;20041;-71
2022/03/17 08:58:42;;;;;;;34.15;19.85;;;;;;;10.15;63.72;99636.06;4953210;28;20033;-74
2022/03/17 09:01:08;;;;;;;32.90;19.10;;;;;;;10.26;63.56;99642.91;4949533;28;20033;-71
2022/03/17 09:03:33;;;;;;;36.13;19.98;;;;;;;10.42;63.21;99653.63;4951250;28;20109;-71
2022/03/17 09:05:59;;;;;;;33.25;19.45;;;;;;;10.61;63.06;99657.72;4947173;28;20038;-71
2022/03/17 09:08:26;;;;;;;31.58;19.55;;;;;;;10.59;62.85;99662.47;4950804;28;20108;-74
2022/03/17 09:10:52;;;;;;;32.30;19.25;;;;;;;10.47;62.94;99634.16;4950867;28;20034;-70
2022/03/17 09:13:18;;;;;;;33.85;19.92;;;;;;;10.57;62.43;99658.25;4949048;28;20498;-71
2022/03/17 09:15:49;;;;;;;34.45;20.15;;;;;;;10.56;62.94;99665.53;5085730;27;20401;-72
2022/03/17 09:18:15;;;;;;;32.28;20.83;;;;;;;10.60;62.22;99652.47;5069173;28;20485;-72
2022/03/17 09:20:41;;;;;;;33.00;20.88;;;;;;;10.73;62.35;99660.81;5065595;28;20025;-71
2022/03/17 09:23:07;;;;;;;37.20;21.08;;;;;;;10.57;62.01;99640.16;5067826;28;20159;-71
2022/03/17 09:25:33;;;;;;;30.85;20.45;;;;;;;10.93;61.58;99663.84;5067076;28;20426;-68
2022/03/17 09:27:58;;;;;;;32.03;20.17;;;;;;;10.96;61.38;99639.09;5063626;28;20448;-70
2022/03/17 09:30:24;;;;;;;32.92;20.30;;;;;;;11.34;62.43;99666.09;5062994;28;20021;-70
2022/03/17 09:32:54;;;;;;;33.85;20.73;;;;;;;11.23;61.22;99629.50;5068975;28;20082;-66
2022/03/17 09:35:20;;;;;;;35.40;21.33;;;;;;;11.56;60.87;99662.44;5054738;28;21389;-69
2022/03/17 09:37:45;;;;;;;34.85;20.60;;;;;;;11.43;62.42;99640.59;5056920;28;20158;-67
2022/03/17 09:40:12;;;;;;;32.88;22.15;;;;;;;11.51;62.14;99656.75;5056743;28;20152;-67
2022/03/17 09:42:38;;;;;;;33.15;21.10;;;;;;;11.73;60.91;99659.53;5059653;28;20033;-67
2022/03/17 09:45:05;;;;;;;35.08;19.98;;;;;;;11.73;60.08;99627.00;5056923;28;20063;-71
2022/03/17 09:47:35;;;;;;;34.15;21.70;;;;;;;12.09;59.57;99666.88;5062911;28;20064;-67
2022/03/17 09:50:01;;;;;;;35.17;21.80;;;;;;;12.16;58.59;99667.78;5056513;28;20025;-66
2022/03/17 09:52:27;;;;;;;33.83;21.48;;;;;;;11.85;58.91;99649.88;5059199;28;20032;-67
2022/03/17 09:54:53;;;;;;;30.70;20.90;;;;;;;11.97;59.04;99631.25;5060651;28;20039;-67
2022/03/17 09:57:20;;;;;;;34.25;21.25;;;;;;;12.05;59.13;99660.97;5061996;28;20398;-72
2022/03/17 09:59:48;;;;;;;34.72;21.30;;;;;;;12.13;59.52;99676.28;5062008;28;20047;-70
2022/03/17 10:02:16;;;;;;;36.50;20.97;;;;;;;12.42;58.34;99662.63;5060327;28;20051;-67
2022/03/17 10:04:44;;;;;;;33.47;20.92;;;;;;;12.33;59.10;99674.63;5061745;28;20449;-68
2022/03/17 10:07:09;;;;;;;34.80;21.50;;;;;;;12.37;58.44;99675.09;5061629;28;20025;-66
2022/03/17 10:09:35;;;;;;;33.55;21.13;;;;;;;12.22;58.58;99645.31;5060469;28;20039;-66
2022/03/17 10:12:11;;;;;;;31.23;21.63;;;;;;;12.33;58.85;99680.06;5058666;28;20520;-66
2022/03/17 10:14:44;;;;;;;32.28;21.85;;;;;;;11.81;59.97;99678.38;5061942;28;20456;-67
2022/03/17 10:17:39;;;;;;;37.20;22.10;;;;;;;12.19;58.73;99679.06;5059499;28;20029;-65
2022/03/17 10:20:18;;;;;;;34.83;22.35;;;;;;;12.22;59.51;99686.00;5059716;28;20398;-66
2022/03/17 10:22:50;;;;;;;32.83;20.30;;;;;;;12.22;59.00;99653.44;5061436;28;20111;-66
2022/03/17 10:25:26;;;;;;;33.40;22.17;;;;;;;12.63;59.79;99690.78;5060438;28;20083;-66
2022/03/17 10:27:55;;;;;;;36.95;22.25;;;;;;;12.33;59.67;99690.91;5049439;28;20115;-66
2022/03/17 10:30:35;;;;;;;33.97;22.17;;;;;;;11.74;60.82;99678.31;5043573;28;20024;-67
2022/03/17 10:33:13;;;;;;;35.58;20.50;;;;;;;12.27;59.70;99692.53;5050140;28;22728;-68
2022/03/17 10:35:45;;;;;;;32.08;20.83;;;;;;;12.33;59.10;99699.03;5046182;28;20116;-69
2022/03/17 10:38:15;;;;;;;33.35;21.38;;;;;;;12.44;60.00;99712.13;5048645;28;20382;-70
2022/03/17 10:40:42;;;;;;;32.08;21.58;;;;;;;12.69;59.47;99700.88;5052587;28;20025;-69
2022/03/17 10:43:18;;;;;;;32.35;21.45;;;;;;;12.56;59.03;99711.59;5049338;28;20040;-70
2022/03/17 10:45:44;;;;;;;34.42;21.63;;;;;;;12.64;60.19;99716.91;5051401;28;20481;-70
2022/03/17 10:48:09;;;;;;;31.55;20.98;;;;;;;12.82;58.69;99700.16;5050534;28;20056;-69
2022/03/17 10:50:43;;;;;;;36.08;22.40;;;;;;;13.05;57.13;99722.50;5071963;22;21035;-74
2022/03/17 10:53:09;;;;;;;32.38;20.63;;;;;;;13.15;57.20;99724.84;5043489;28;20032;-74
2022/03/17 10:55:36;;;;;;;32.90;21.67;;;;;;;13.03;57.28;99724.56;5047314;28;20025;-75
2022/03/17 10:58:19;;;;;;;32.55;20.75;;;;;;;13.42;58.39;99727.81;5041122;28;20122;-73
2022/03/17 11:00:51;;;;;;;32.92;21.60;;;;;;;13.29;57.74;99731.25;5027870;28;20029;-72
2022/03/17 11:03:17;;;;;;;35.50;22.02;;;;;;;12.86;59.21;99712.28;5026299;28;20099;-71
2022/03/17 11:05:44;;;;;;;32.65;21.23;;;;;;;13.37;58.65;99729.22;5021446;28;20038;-72
2022/03/17 11:08:10;;;;;;;37.85;24.50;;;;;;;13.22;58.87;99700.44;5022130;28;20051;-71
2022/03/17 11:10:38;;;;;;;35.92;21.92;;;;;;;13.28;57.71;99733.16;5026072;28;20079;-74
2022/03/17 11:13:11;;;;;;;30.90;21.58;;;;;;;13.06;57.40;99709.75;5023854;28;21828;-71
2022/03/17 11:15:48;;;;;;;32.90;21.13;;;;;;;13.22;59.05;99743.91;5022324;28;20029;-71
2022/03/17 11:18:21;;;;;;;28.73;20.88;;;;;;;13.31;59.00;99735.47;5025418;28;20029;-71
2022/03/17 11:20:46;;;;;;;32.08;21.83;;;;;;;13.25;59.02;99738.94;5024125;28;20037;-72
2022/03/17 11:23:25;;;;;;;28.83;20.75;;;;;;;13.37;58.76;99736.53;5025734;28;20401;-71
2022/03/17 11:25:54;;;;;;;33.58;22.33;;;;;;;13.17;58.92;99709.19;5025833;28;20395;-72
2022/03/17 11:28:34;;;;;;;33.85;22.05;;;;;;;13.18;59.87;99719.03;5025191;28;20048;-74
2022/03/17 11:31:07;;;;;;;37.50;23.67;;;;;;;13.16;60.01;99743.66;5024110;28;20112;-74
2022/03/17 11:33:37;;;;;;;41.92;23.90;;;;;;;12.81;61.12;99709.31;5022881;28;20033;-74
2022/03/17 11:36:08;;;;;;;38.08;24.27;;;;;;;12.87;62.15;99746.56;5026625;28;20041;-74
2022/03/17 11:38:38;;;;;;;36.53;22.75;;;;;;;12.67;62.66;99730.06;5022724;28;20029;-74
2022/03/17 11:41:10;;;;;;;38.90;23.58;;;;;;;12.85;61.22;99751.34;5038417;28;20029;-74